Time,TemperatureF,DewpointF,PressureIn,WindDirection,WindDirectionDegrees,WindSpeedMPH,WindSpeedGustMPH,Humidity,HourlyPrecipIn,Conditions,Clouds,dailyrainin,SoftwareType,DateUTC
2013-07-07 00:03:00,65.0,60.4,30.00,ESE,116,0.0,0.0,85,0.00,,CLR,0.00,VWS V14.01,2013-07-07 05:03:00,
2013-07-07 00:08:00,64.9,60.3,30.00,ESE,116,0.0,2.0,85,0.00,,CLR,0.00,VWS V14.01,2013-07-07 05:08:00,
2013-07-07 00:13:00,64.8,60.2,29.99,ESE,116,0.0,0.0,85,0.00,,CLR,0.00,VWS V14.01,2013-07-07 05:13:00,
2013-07-07 00:18:00,64.7,60.1,29.99,ESE,116,0.0,0.0,85,0.00,,CLR,0.00,VWS V14.01,2013-07-07 05:18:00,
2013-07-07 00:23:00,64.7,60.1,30.00,ESE,116,0.0,0.0,85,0.00,,CLR,0.00,VWS V14.01,2013-07-07 05:23:00,
2013-07-07 00:28:00,64.6,60.0,30.00,ESE,116,0.0,0.0,85,0.00,,CLR,0.00,VWS V14.01,2013-07-07 05:28:00,
2013-07-07 00:33:00,64.4,59.8,30.00,ESE,116,0.0,0.0,85,0.00,,CLR,0.00,VWS V14.01,2013-07-07 05:33:00,
2013-07-07 00:38:00,64.2,59.6,30.00,ESE,116,0.0,0.0,85,0.00,,CLR,0.00,VWS V14.01,2013-07-07 05:38:00,
2013-07-07 00:43:00,64.1,59.5,30.00,ESE,116,0.0,0.0,85,0.00,,CLR,0.00,VWS V14.01,2013-07-07 05:43:00,
2013-07-07 00:48:00,64.0,59.4,30.00,ESE,116,0.0,0.0,85,0.00,,CLR,0.00,VWS V14.01,2013-07-07 05:48:00,
2013-07-07 00:53:00,63.9,59.3,30.00,ESE,116,0.0,0.0,85,0.00,,CLR,0.00,VWS V14.01,2013-07-07 05:53:00,
2013-07-07 00:58:00,63.8,59.2,30.00,ESE,116,0.0,0.0,85,0.00,,CLR,0.00,VWS V14.01,2013-07-07 05:58:00,
2013-07-07 01:03:00,63.6,59.0,30.00,ESE,116,0.0,0.0,85,0.00,,CLR,0.00,VWS V14.01,2013-07-07 06:03:00,
2013-07-07 01:08:00,63.5,58.9,30.00,ESE,116,0.0,0.0,85,0.00,,CLR,0.00,VWS V14.01,2013-07-07 06:08:00,
2013-07-07 01:13:00,63.4,58.8,29.99,ESE,116,0.0,0.0,85,0.00,,CLR,0.00,VWS V14.01,2013-07-07 06:13:00,
2013-07-07 01:18:00,63.4,58.5,29.99,ESE,116,0.0,0.0,84,0.00,,CLR,0.00,VWS V14.01,2013-07-07 06:18:00,
2013-07-07 01:23:00,63.4,58.5,29.99,ESE,116,0.0,0.0,84,0.00,,CLR,0.00,VWS V14.01,2013-07-07 06:23:00,
2013-07-07 01:28:00,63.3,58.4,29.99,ESE,116,0.0,0.0,84,0.00,,CLR,0.00,VWS V14.01,2013-07-07 06:28:00,
2013-07-07 01:34:00,63.1,58.2,30.00,ESE,116,0.0,0.0,84,0.00,,CLR,0.00,VWS V14.01,2013-07-07 06:34:00,
2013-07-07 01:39:00,63.1,58.2,30.00,ESE,116,0.0,1.0,84,0.00,,CLR,0.00,VWS V14.01,2013-07-07 06:39:00,
2013-07-07 01:44:00,63.0,58.1,30.00,ESE,116,0.0,0.0,84,0.00,,CLR,0.00,VWS V14.01,2013-07-07 06:44:00,
2013-07-07 01:49:00,63.0,58.1,30.00,ESE,116,0.0,0.0,84,0.00,,CLR,0.00,VWS V14.01,2013-07-07 06:49:00,
2013-07-07 01:54:00,63.0,58.1,30.00,ESE,116,0.0,0.0,84,0.00,,CLR,0.00,VWS V14.01,2013-07-07 06:54:00,
2013-07-07 01:59:00,63.0,58.1,30.00,ESE,116,0.0,0.0,84,0.00,,CLR,0.00,VWS V14.01,2013-07-07 06:59:00,
2013-07-07 02:04:00,63.0,58.1,29.99,ESE,116,0.0,0.0,84,0.00,,CLR,0.00,VWS V14.01,2013-07-07 07:04:00,
2013-07-07 02:09:00,62.9,58.0,29.99,ESE,116,0.0,0.0,84,0.00,,CLR,0.00,VWS V14.01,2013-07-07 07:09:00,
2013-07-07 02:14:00,62.9,58.0,30.00,ESE,116,0.0,0.0,84,0.00,,CLR,0.00,VWS V14.01,2013-07-07 07:14:00,
2013-07-07 02:19:00,62.8,57.9,30.00,ESE,116,0.0,0.0,84,0.00,,CLR,0.00,VWS V14.01,2013-07-07 07:19:00,
2013-07-07 02:24:00,62.7,57.8,30.00,ESE,116,0.0,0.0,84,0.00,,CLR,0.00,VWS V14.01,2013-07-07 07:24:00,
2013-07-07 02:29:00,62.7,57.8,30.00,ESE,116,0.0,0.0,84,0.00,,CLR,0.00,VWS V14.01,2013-07-07 07:29:00,
2013-07-07 02:34:00,62.6,57.7,30.00,ESE,116,0.0,0.0,84,0.00,,CLR,0.00,VWS V14.01,2013-07-07 07:34:00,
2013-07-07 02:39:00,62.5,57.6,30.00,ESE,116,0.0,0.0,84,0.00,,CLR,0.00,VWS V14.01,2013-07-07 07:39:00,
2013-07-07 02:44:00,62.4,57.5,30.00,ESE,116,0.0,0.0,84,0.00,,CLR,0.00,VWS V14.01,2013-07-07 07:44:00,
2013-07-07 02:49:00,62.3,57.4,30.00,ESE,116,0.0,0.0,84,0.00,,CLR,0.00,VWS V14.01,2013-07-07 07:49:00,
2013-07-07 02:54:00,62.3,57.4,30.00,ESE,116,0.0,0.0,84,0.00,,CLR,0.00,VWS V14.01,2013-07-07 07:54:00,
2013-07-07 02:59:00,62.2,57.3,29.99,ESE,116,0.0,0.0,84,0.00,,CLR,0.00,VWS V14.01,2013-07-07 07:59:00,
2013-07-07 03:04:00,62.2,57.0,30.00,ESE,116,0.0,0.0,83,0.00,,CLR,0.00,VWS V14.01,2013-07-07 08:04:00,
2013-07-07 03:09:00,62.2,57.0,29.99,ESE,116,0.0,0.0,83,0.00,,CLR,0.00,VWS V14.01,2013-07-07 08:09:00,
2013-07-07 03:14:00,62.2,57.0,30.00,ESE,116,0.0,0.0,83,0.00,,CLR,0.00,VWS V14.01,2013-07-07 08:14:00,
2013-07-07 03:19:00,62.1,56.9,30.00,ESE,116,0.0,0.0,83,0.00,,CLR,0.00,VWS V14.01,2013-07-07 08:19:00,
2013-07-07 03:24:00,62.2,57.0,30.00,ESE,116,0.0,0.0,83,0.00,,CLR,0.00,VWS V14.01,2013-07-07 08:24:00,
2013-07-07 03:29:00,62.2,57.0,30.00,ESE,116,0.0,0.0,83,0.00,,CLR,0.00,VWS V14.01,2013-07-07 08:29:00,
2013-07-07 03:34:00,62.2,57.0,30.00,ESE,116,0.0,0.0,83,0.00,,CLR,0.00,VWS V14.01,2013-07-07 08:34:00,
2013-07-07 03:39:00,62.2,57.0,30.00,ESE,116,0.0,0.0,83,0.00,,CLR,0.00,VWS V14.01,2013-07-07 08:39:00,
2013-07-07 03:44:00,62.2,57.0,30.00,ESE,116,0.0,0.0,83,0.00,,CLR,0.00,VWS V14.01,2013-07-07 08:44:00,
2013-07-07 03:49:00,62.2,57.0,30.00,ESE,116,0.0,0.0,83,0.00,,CLR,0.00,VWS V14.01,2013-07-07 08:49:00,
2013-07-07 03:54:00,62.3,57.1,29.99,ESE,116,0.0,0.0,83,0.00,,CLR,0.00,VWS V14.01,2013-07-07 08:54:00,
2013-07-07 03:59:00,62.4,57.2,29.99,ESE,116,0.0,0.0,83,0.00,,CLR,0.00,VWS V14.01,2013-07-07 08:59:00,
2013-07-07 04:04:00,62.4,57.2,29.99,ESE,116,0.0,0.0,83,0.00,,CLR,0.00,VWS V14.01,2013-07-07 09:04:00,
2013-07-07 04:09:00,62.3,57.1,29.99,ESE,116,0.0,0.0,83,0.00,,CLR,0.00,VWS V14.01,2013-07-07 09:09:00,
2013-07-07 04:14:00,62.4,57.2,29.99,ESE,116,0.0,0.0,83,0.00,,CLR,0.00,VWS V14.01,2013-07-07 09:14:00,
2013-07-07 04:19:00,62.5,57.3,29.99,ESE,116,0.0,0.0,83,0.00,,CLR,0.00,VWS V14.01,2013-07-07 09:19:00,
2013-07-07 04:24:00,62.8,57.6,29.99,ESE,116,0.0,0.0,83,0.00,,CLR,0.00,VWS V14.01,2013-07-07 09:24:00,
2013-07-07 04:29:00,62.9,57.7,29.99,ESE,116,0.0,0.0,83,0.00,,CLR,0.00,VWS V14.01,2013-07-07 09:29:00,
2013-07-07 04:34:00,63.0,57.8,30.00,ESE,116,0.0,0.0,83,0.00,,CLR,0.00,VWS V14.01,2013-07-07 09:34:00,
2013-07-07 04:39:00,63.2,58.0,29.99,ESE,116,0.0,0.0,83,0.00,,CLR,0.00,VWS V14.01,2013-07-07 09:39:00,
2013-07-07 04:44:00,63.5,58.2,30.00,ESE,116,0.0,0.0,83,0.00,,CLR,0.00,VWS V14.01,2013-07-07 09:44:00,
2013-07-07 04:49:00,63.7,58.5,30.00,ESE,116,0.0,0.0,83,0.00,,CLR,0.00,VWS V14.01,2013-07-07 09:49:00,
2013-07-07 04:54:00,63.8,58.5,30.00,ESE,116,0.0,0.0,83,0.00,,CLR,0.00,VWS V14.01,2013-07-07 09:54:00,
2013-07-07 04:59:00,64.0,58.7,30.00,ESE,116,0.0,0.0,83,0.00,,CLR,0.00,VWS V14.01,2013-07-07 09:59:00,
2013-07-07 05:04:00,64.1,58.8,30.00,ESE,116,0.0,1.0,83,0.00,,CLR,0.00,VWS V14.01,2013-07-07 10:04:00,
2013-07-07 05:09:00,64.1,58.8,30.00,ESE,116,0.0,1.0,83,0.00,,CLR,0.00,VWS V14.01,2013-07-07 10:09:00,
2013-07-07 05:14:00,64.2,58.9,30.00,ESE,116,0.0,0.0,83,0.00,,CLR,0.00,VWS V14.01,2013-07-07 10:14:00,
2013-07-07 05:19:00,64.3,59.4,30.00,ESE,116,0.0,1.0,84,0.00,,CLR,0.00,VWS V14.01,2013-07-07 10:19:00,
2013-07-07 05:24:00,64.4,59.5,30.00,ESE,116,0.0,0.0,84,0.00,,CLR,0.00,VWS V14.01,2013-07-07 10:24:00,
2013-07-07 05:29:00,64.4,59.5,30.00,ESE,116,0.0,0.0,84,0.00,,CLR,0.00,VWS V14.01,2013-07-07 10:29:00,
2013-07-07 05:31:00,64.5,59.6,30.00,ESE,116,0.0,0.0,84,0.00,,CLR,0.00,VWS V14.01,2013-07-07 10:31:00,
2013-07-07 05:39:00,64.5,59.6,30.01,ESE,116,0.0,1.0,84,0.00,,CLR,0.00,VWS V14.01,2013-07-07 10:39:00,
2013-07-07 05:44:00,64.7,59.8,30.01,ESE,116,0.0,1.0,84,0.00,,CLR,0.00,VWS V14.01,2013-07-07 10:44:00,
2013-07-07 05:49:00,64.7,59.8,30.01,ESE,116,0.0,1.0,84,0.00,,CLR,0.00,VWS V14.01,2013-07-07 10:49:00,
2013-07-07 05:54:00,64.7,60.1,30.01,ESE,116,0.0,0.0,85,0.00,,CLR,0.00,VWS V14.01,2013-07-07 10:54:00,
2013-07-07 05:59:00,64.8,60.2,30.01,ESE,116,0.0,0.0,85,0.00,,CLR,0.00,VWS V14.01,2013-07-07 10:59:00,
2013-07-07 06:04:00,64.8,60.2,30.01,ESE,116,0.0,1.0,85,0.00,,CLR,0.00,VWS V14.01,2013-07-07 11:04:00,
2013-07-07 06:09:00,64.8,60.2,30.01,ESE,116,0.0,1.0,85,0.00,,CLR,0.00,VWS V14.01,2013-07-07 11:09:00,
2013-07-07 06:14:00,64.8,60.2,30.02,ESE,116,0.0,0.0,85,0.00,,CLR,0.00,VWS V14.01,2013-07-07 11:14:00,
2013-07-07 06:19:00,64.8,60.2,30.02,ESE,116,0.0,0.0,85,0.00,,CLR,0.00,VWS V14.01,2013-07-07 11:19:00,
2013-07-07 06:24:00,64.8,60.2,30.02,ESE,116,0.0,2.0,85,0.00,,CLR,0.00,VWS V14.01,2013-07-07 11:24:00,
2013-07-07 06:29:00,64.9,60.0,30.02,ESE,116,0.0,2.0,84,0.00,,CLR,0.00,VWS V14.01,2013-07-07 11:29:00,
2013-07-07 06:34:00,65.0,60.0,30.02,ESE,116,0.0,0.0,84,0.00,,CLR,0.00,VWS V14.01,2013-07-07 11:34:00,
2013-07-07 06:39:00,65.1,60.2,30.03,ESE,116,0.0,0.0,84,0.00,,CLR,0.00,VWS V14.01,2013-07-07 11:39:00,
2013-07-07 06:44:00,65.3,60.3,30.02,ESE,116,0.0,1.0,84,0.00,,CLR,0.00,VWS V14.01,2013-07-07 11:44:00,
2013-07-07 06:49:00,65.6,60.6,30.03,ESE,116,0.0,4.0,84,0.00,,CLR,0.00,VWS V14.01,2013-07-07 11:49:00,
2013-07-07 06:54:00,65.8,60.8,30.03,ESE,116,0.0,0.0,84,0.00,,CLR,0.00,VWS V14.01,2013-07-07 11:54:00,
2013-07-07 06:59:00,66.1,61.1,30.03,ESE,116,0.0,1.0,84,0.00,,CLR,0.00,VWS V14.01,2013-07-07 11:59:00,
2013-07-07 07:04:00,66.3,61.3,30.03,ESE,116,0.0,0.0,84,0.00,,CLR,0.00,VWS V14.01,2013-07-07 12:04:00,
2013-07-07 07:09:00,66.5,61.5,30.03,ESE,116,0.0,2.0,84,0.00,,CLR,0.00,VWS V14.01,2013-07-07 12:09:00,
2013-07-07 07:14:00,66.6,61.6,30.03,SE,144,0.0,4.0,84,0.00,,CLR,0.00,VWS V14.01,2013-07-07 12:14:00,
2013-07-07 07:19:00,66.8,61.8,30.04,SE,144,0.0,4.0,84,0.00,,CLR,0.00,VWS V14.01,2013-07-07 12:19:00,
2013-07-07 07:29:00,67.0,62.3,30.05,South,173,1.0,6.0,85,0.00,,CLR,0.00,VWS V14.01,2013-07-07 12:29:00,
2013-07-07 07:34:00,67.1,62.5,30.04,South,173,0.0,1.0,85,0.00,,CLR,0.00,VWS V14.01,2013-07-07 12:34:00,
2013-07-07 07:39:00,67.3,62.3,30.04,South,173,0.0,1.0,84,0.00,,CLR,0.00,VWS V14.01,2013-07-07 12:39:00,
2013-07-07 07:44:00,67.6,62.9,30.05,South,173,0.0,1.0,85,0.00,,CLR,0.00,VWS V14.01,2013-07-07 12:44:00,
2013-07-07 07:49:00,67.9,63.2,30.05,South,173,0.0,1.0,85,0.00,,CLR,0.00,VWS V14.01,2013-07-07 12:49:00,
2013-07-07 07:54:00,68.1,63.4,30.05,South,173,0.0,1.0,85,0.00,,CLR,0.00,VWS V14.01,2013-07-07 12:54:00,
2013-07-07 07:59:00,68.3,63.6,30.05,South,173,0.0,2.0,85,0.00,,CLR,0.00,VWS V14.01,2013-07-07 12:59:00,
2013-07-07 08:04:00,68.4,63.7,30.04,South,173,0.0,2.0,85,0.00,,CLR,0.00,VWS V14.01,2013-07-07 13:04:00,
2013-07-07 08:09:00,68.6,63.9,30.05,South,171,0.0,5.0,85,0.00,,CLR,0.00,VWS V14.01,2013-07-07 13:09:00,
2013-07-07 08:14:00,68.8,64.1,30.05,South,175,0.0,2.0,85,0.00,,CLR,0.00,VWS V14.01,2013-07-07 13:14:00,
2013-07-07 08:19:00,69.0,64.3,30.05,South,175,0.0,2.0,85,0.00,,CLR,0.00,VWS V14.01,2013-07-07 13:19:00,
2013-07-07 08:24:00,69.2,64.5,30.05,South,175,0.0,2.0,85,0.00,,CLR,0.00,VWS V14.01,2013-07-07 13:24:00,
2013-07-07 08:29:00,69.4,64.7,30.05,South,183,0.0,4.0,85,0.00,,CLR,0.00,VWS V14.01,2013-07-07 13:29:00,
2013-07-07 08:34:00,69.8,65.1,30.05,South,183,0.0,1.0,85,0.00,,CLR,0.00,VWS V14.01,2013-07-07 13:34:00,
2013-07-07 08:39:00,70.3,65.6,30.05,SSW,198,3.0,7.0,85,0.00,,CLR,0.00,VWS V14.01,2013-07-07 13:39:00,
2013-07-07 08:44:00,70.8,66.1,30.05,SW,230,0.0,5.0,85,0.00,,CLR,0.00,VWS V14.01,2013-07-07 13:44:00,
2013-07-07 08:49:00,71.3,66.6,30.05,WSW,247,1.0,7.0,85,0.00,,CLR,0.00,VWS V14.01,2013-07-07 13:49:00,
2013-07-07 08:54:00,71.6,66.9,30.05,WSW,240,4.0,6.0,85,0.00,,CLR,0.00,VWS V14.01,2013-07-07 13:54:00,
2013-07-07 08:59:00,72.1,67.0,30.05,WSW,244,0.0,7.0,84,0.00,,CLR,0.00,VWS V14.01,2013-07-07 13:59:00,
2013-07-07 09:04:00,72.4,67.3,30.05,WSW,244,0.0,1.0,84,0.00,,CLR,0.00,VWS V14.01,2013-07-07 14:04:00,
2013-07-07 09:09:00,72.5,67.4,30.05,WSW,244,0.0,2.0,84,0.00,,CLR,0.00,VWS V14.01,2013-07-07 14:09:00,
2013-07-07 09:14:00,72.8,67.7,30.05,SSW,201,0.0,3.0,84,0.00,,CLR,0.00,VWS V14.01,2013-07-07 14:14:00,
2013-07-07 09:19:00,73.3,68.2,30.05,SSW,201,0.0,3.0,84,0.00,,CLR,0.00,VWS V14.01,2013-07-07 14:19:00,
2013-07-07 09:24:00,74.0,68.9,30.04,SSW,201,1.0,1.0,84,0.00,,CLR,0.00,VWS V14.01,2013-07-07 14:24:00,
2013-07-07 09:29:00,74.5,69.0,30.04,SSW,205,2.0,6.0,83,0.00,,CLR,0.00,VWS V14.01,2013-07-07 14:29:00,
2013-07-07 09:34:00,75.1,69.6,30.04,South,178,0.0,4.0,83,0.00,,CLR,0.00,VWS V14.01,2013-07-07 14:34:00,
2013-07-07 09:39:00,75.6,69.7,30.04,South,173,1.0,5.0,82,0.00,,CLR,0.00,VWS V14.01,2013-07-07 14:39:00,
2013-07-07 09:44:00,76.2,70.3,30.04,South,173,0.0,5.0,82,0.00,,CLR,0.00,VWS V14.01,2013-07-07 14:44:00,
2013-07-07 09:49:00,76.8,70.5,30.04,South,175,1.0,6.0,81,0.00,,CLR,0.00,VWS V14.01,2013-07-07 14:49:00,
2013-07-07 09:54:00,77.4,70.8,30.04,South,178,1.0,4.0,80,0.00,,CLR,0.00,VWS V14.01,2013-07-07 14:54:00,
2013-07-07 09:59:00,78.0,71.0,30.04,SSE,149,4.0,6.0,79,0.00,,CLR,0.00,VWS V14.01,2013-07-07 14:59:00,
2013-07-07 10:04:00,78.4,71.3,30.04,SSE,161,0.0,6.0,79,0.00,,CLR,0.00,VWS V14.01,2013-07-07 15:04:00,
2013-07-07 10:09:00,78.7,71.6,30.04,WSW,246,3.0,6.0,79,0.00,,CLR,0.00,VWS V14.01,2013-07-07 15:09:00,
2013-07-07 10:14:00,79.0,71.6,30.04,SSW,199,0.0,4.0,78,0.00,,CLR,0.00,VWS V14.01,2013-07-07 15:14:00,
2013-07-07 10:19:00,79.4,71.9,30.04,SE,140,1.0,5.0,78,0.00,,CLR,0.00,VWS V14.01,2013-07-07 15:19:00,
2013-07-07 10:24:00,79.9,72.1,30.04,South,174,0.0,6.0,77,0.00,,CLR,0.00,VWS V14.01,2013-07-07 15:24:00,
2013-07-07 10:30:00,80.2,72.3,30.04,South,175,2.0,6.0,77,0.00,,CLR,0.00,VWS V14.01,2013-07-07 15:30:00,
2013-07-07 10:35:00,80.5,72.6,30.04,South,180,0.0,1.0,77,0.00,,CLR,0.00,VWS V14.01,2013-07-07 15:35:00,
2013-07-07 10:40:00,81.1,72.8,30.04,South,190,1.0,5.0,76,0.00,,CLR,0.00,VWS V14.01,2013-07-07 15:40:00,
2013-07-07 10:45:00,81.2,72.9,30.04,SE,146,2.0,4.0,76,0.00,,CLR,0.00,VWS V14.01,2013-07-07 15:45:00,
2013-07-07 10:50:00,81.4,73.1,30.04,SSW,196,1.0,4.0,76,0.00,,CLR,0.00,VWS V14.01,2013-07-07 15:50:00,
2013-07-07 10:55:00,81.7,72.6,30.04,South,175,1.0,5.0,74,0.00,,CLR,0.00,VWS V14.01,2013-07-07 15:55:00,
2013-07-07 11:00:00,82.1,73.0,30.04,South,190,0.0,5.0,74,0.00,,CLR,0.00,VWS V14.01,2013-07-07 16:00:00,
2013-07-07 11:05:00,81.9,72.8,30.04,West,266,7.0,8.0,74,0.00,,CLR,0.00,VWS V14.01,2013-07-07 16:05:00,
2013-07-07 11:10:00,81.7,72.2,30.04,SSE,165,0.0,9.0,73,0.00,,CLR,0.00,VWS V14.01,2013-07-07 16:10:00,
2013-07-07 11:15:00,82.3,73.2,30.03,SSW,207,3.0,6.0,74,0.00,,CLR,0.00,VWS V14.01,2013-07-07 16:15:00,
2013-07-07 11:20:00,82.3,73.2,30.04,South,176,6.0,7.0,74,0.00,,CLR,0.00,VWS V14.01,2013-07-07 16:20:00,
2013-07-07 11:25:00,82.2,72.3,30.03,SSE,168,0.0,4.0,72,0.00,,CLR,0.00,VWS V14.01,2013-07-07 16:25:00,
2013-07-07 11:30:00,82.8,73.7,30.03,South,184,0.0,4.0,74,0.00,,CLR,0.00,VWS V14.01,2013-07-07 16:30:00,
2013-07-07 11:35:00,83.1,72.7,30.03,WSW,244,0.0,6.0,71,0.00,,CLR,0.00,VWS V14.01,2013-07-07 16:35:00,
2013-07-07 11:40:00,82.9,72.9,30.03,South,180,0.0,6.0,72,0.00,,CLR,0.00,VWS V14.01,2013-07-07 16:40:00,
2013-07-07 11:45:00,82.9,73.4,30.03,SSW,197,0.0,6.0,73,0.00,,CLR,0.00,VWS V14.01,2013-07-07 16:45:00,
2013-07-07 11:50:00,83.2,73.2,30.02,SSW,202,0.0,6.0,72,0.00,,CLR,0.00,VWS V14.01,2013-07-07 16:50:00,
2013-07-07 11:55:00,83.8,73.8,30.02,SW,232,0.0,4.0,72,0.00,,CLR,0.00,VWS V14.01,2013-07-07 16:55:00,
2013-07-07 12:00:00,83.8,73.4,30.02,SSW,194,0.0,8.0,71,0.00,,CLR,0.00,VWS V14.01,2013-07-07 17:00:00,
2013-07-07 12:05:00,84.0,74.0,30.02,SSE,161,1.0,8.0,72,0.00,,CLR,0.00,VWS V14.01,2013-07-07 17:05:00,
2013-07-07 12:10:00,84.0,72.3,30.02,South,180,1.0,8.0,68,0.00,,CLR,0.00,VWS V14.01,2013-07-07 17:10:00,
2013-07-07 12:15:00,83.8,73.4,30.02,SSW,194,0.0,8.0,71,0.00,,CLR,0.00,VWS V14.01,2013-07-07 17:15:00,
2013-07-07 12:20:00,84.3,74.3,30.02,SSW,192,0.0,8.0,72,0.00,,CLR,0.00,VWS V14.01,2013-07-07 17:20:00,
2013-07-07 12:25:00,84.8,73.9,30.02,South,175,5.0,5.0,70,0.00,,CLR,0.00,VWS V14.01,2013-07-07 17:25:00,
2013-07-07 12:30:00,84.7,72.5,30.02,South,187,1.0,7.0,67,0.00,,CLR,0.00,VWS V14.01,2013-07-07 17:30:00,
2013-07-07 12:35:00,84.9,73.2,30.02,South,175,0.0,7.0,68,0.00,,CLR,0.00,VWS V14.01,2013-07-07 17:35:00,
2013-07-07 12:40:00,85.2,73.4,30.02,South,187,2.0,7.0,68,0.00,,CLR,0.00,VWS V14.01,2013-07-07 17:40:00,
2013-07-07 12:45:00,85.1,72.9,30.02,SW,232,3.0,8.0,67,0.00,,CLR,0.00,VWS V14.01,2013-07-07 17:45:00,
2013-07-07 12:50:00,85.4,74.1,30.02,WSW,243,0.0,8.0,69,0.00,,CLR,0.00,VWS V14.01,2013-07-07 17:50:00,
2013-07-07 12:55:00,85.1,72.5,30.02,SSW,201,1.0,5.0,66,0.00,,CLR,0.00,VWS V14.01,2013-07-07 17:55:00,
2013-07-07 13:00:00,85.7,73.9,30.01,South,185,1.0,7.0,68,0.00,,CLR,0.00,VWS V14.01,2013-07-07 18:00:00,
2013-07-07 13:05:00,86.2,72.6,30.01,South,175,1.0,8.0,64,0.00,,CLR,0.00,VWS V14.01,2013-07-07 18:05:00,
2013-07-07 13:10:00,85.5,72.4,30.02,South,174,1.0,8.0,65,0.00,,CLR,0.00,VWS V14.01,2013-07-07 18:10:00,
2013-07-07 13:15:00,85.2,73.0,30.01,WSW,243,0.0,6.0,67,0.00,,CLR,0.00,VWS V14.01,2013-07-07 18:15:00,
2013-07-07 13:20:00,85.8,74.0,30.01,SW,216,0.0,8.0,68,0.00,,CLR,0.00,VWS V14.01,2013-07-07 18:20:00,
2013-07-07 13:25:00,85.8,72.7,30.01,South,181,1.0,7.0,65,0.00,,CLR,0.00,VWS V14.01,2013-07-07 18:25:00,
2013-07-07 13:30:00,85.9,72.8,30.01,South,171,1.0,8.0,65,0.00,,CLR,0.00,VWS V14.01,2013-07-07 18:30:00,
2013-07-07 13:35:00,85.9,72.8,30.01,South,188,0.0,7.0,65,0.00,,CLR,0.00,VWS V14.01,2013-07-07 18:35:00,
2013-07-07 13:40:00,86.3,73.6,30.01,SSW,196,1.0,9.0,66,0.00,,CLR,0.00,VWS V14.01,2013-07-07 18:40:00,
2013-07-07 13:45:00,86.2,72.6,30.01,SSW,199,0.0,4.0,64,0.00,,CLR,0.00,VWS V14.01,2013-07-07 18:45:00,
2013-07-07 13:50:00,86.4,73.7,30.01,SSE,149,1.0,8.0,66,0.00,,CLR,0.00,VWS V14.01,2013-07-07 18:50:00,
2013-07-07 13:55:00,87.3,74.1,30.01,WSW,251,8.0,8.0,65,0.00,,CLR,0.00,VWS V14.01,2013-07-07 18:55:00,
2013-07-07 14:00:00,86.5,72.9,30.01,South,182,3.0,8.0,64,0.00,,CLR,0.00,VWS V14.01,2013-07-07 19:00:00,
2013-07-07 14:05:00,86.8,73.6,30.01,SW,221,1.0,3.0,65,0.00,,CLR,0.00,VWS V14.01,2013-07-07 19:05:00,
2013-07-07 14:10:00,87.4,72.8,30.01,SW,217,4.0,8.0,62,0.00,,CLR,0.00,VWS V14.01,2013-07-07 19:10:00,
2013-07-07 14:15:00,87.3,74.1,30.01,SW,221,2.0,9.0,65,0.00,,CLR,0.00,VWS V14.01,2013-07-07 19:15:00,
2013-07-07 14:20:00,87.7,73.6,30.01,SSE,165,0.0,9.0,63,0.00,,CLR,0.00,VWS V14.01,2013-07-07 19:20:00,
2013-07-07 14:25:00,88.0,74.3,30.01,South,174,4.0,5.0,64,0.00,,CLR,0.00,VWS V14.01,2013-07-07 19:25:00,
2013-07-07 14:30:00,87.7,74.5,30.00,SW,236,0.0,6.0,65,0.00,,CLR,0.00,VWS V14.01,2013-07-07 19:30:00,
2013-07-07 14:35:00,87.8,74.6,30.00,South,174,4.0,7.0,65,0.00,,CLR,0.00,VWS V14.01,2013-07-07 19:35:00,
2013-07-07 14:40:00,87.8,73.6,30.00,SE,146,1.0,7.0,63,0.00,,CLR,0.00,VWS V14.01,2013-07-07 19:40:00,
2013-07-07 14:45:00,87.9,73.7,30.00,SSW,205,5.0,7.0,63,0.00,,CLR,0.00,VWS V14.01,2013-07-07 19:45:00,
2013-07-07 14:50:00,87.6,73.0,30.00,SSW,211,0.0,7.0,62,0.00,,CLR,0.00,VWS V14.01,2013-07-07 19:50:00,
2013-07-07 14:55:00,88.4,73.7,30.00,WSW,241,5.0,9.0,62,0.00,,CLR,0.00,VWS V14.01,2013-07-07 19:55:00,
2013-07-07 15:00:00,88.1,73.4,30.00,SSW,192,1.0,9.0,62,0.00,,CLR,0.00,VWS V14.01,2013-07-07 20:00:00,
2013-07-07 15:05:00,87.9,72.8,30.00,SW,236,0.0,7.0,61,0.00,,CLR,0.00,VWS V14.01,2013-07-07 20:05:00,
2013-07-07 15:10:00,88.0,73.8,30.00,SSE,163,1.0,7.0,63,0.00,,CLR,0.00,VWS V14.01,2013-07-07 20:10:00,
2013-07-07 15:15:00,87.8,73.6,30.00,South,186,3.0,6.0,63,0.00,,CLR,0.00,VWS V14.01,2013-07-07 20:15:00,
2013-07-07 15:20:00,87.4,73.7,29.99,SSE,167,0.0,8.0,64,0.00,,CLR,0.00,VWS V14.01,2013-07-07 20:20:00,
2013-07-07 15:25:00,87.3,73.2,30.00,SW,229,1.0,6.0,63,0.00,,CLR,0.00,VWS V14.01,2013-07-07 20:25:00,
2013-07-07 15:30:00,88.0,74.8,29.99,WSW,244,1.0,7.0,65,0.00,,CLR,0.00,VWS V14.01,2013-07-07 20:30:00,
2013-07-07 15:35:00,88.1,73.9,29.99,SW,221,2.0,5.0,63,0.00,,CLR,0.00,VWS V14.01,2013-07-07 20:35:00,
2013-07-07 15:40:00,88.1,73.9,29.99,SW,230,4.0,7.0,63,0.00,,CLR,0.00,VWS V14.01,2013-07-07 20:40:00,
2013-07-07 15:45:00,88.7,75.0,29.99,WSW,251,2.0,8.0,64,0.00,,CLR,0.00,VWS V14.01,2013-07-07 20:45:00,
2013-07-07 15:50:00,89.1,73.9,29.98,South,173,4.0,8.0,61,0.00,,CLR,0.00,VWS V14.01,2013-07-07 20:50:00,
2013-07-07 15:55:00,88.8,74.6,29.98,SSW,204,2.0,8.0,63,0.00,,CLR,0.00,VWS V14.01,2013-07-07 20:55:00,
2013-07-07 16:00:00,88.5,72.8,29.98,South,177,5.0,8.0,60,0.00,,CLR,0.00,VWS V14.01,2013-07-07 21:00:00,
2013-07-07 16:05:00,88.6,73.4,29.98,SSW,193,1.0,6.0,61,0.00,,CLR,0.00,VWS V14.01,2013-07-07 21:05:00,
2013-07-07 16:10:00,88.6,73.4,29.98,WSW,241,1.0,7.0,61,0.00,,CLR,0.00,VWS V14.01,2013-07-07 21:10:00,
2013-07-07 16:15:00,88.4,73.2,29.98,SW,215,3.0,5.0,61,0.00,,CLR,0.00,VWS V14.01,2013-07-07 21:15:00,
2013-07-07 16:20:00,88.1,73.0,29.98,SE,136,2.0,7.0,61,0.00,,CLR,0.00,VWS V14.01,2013-07-07 21:20:00,
2013-07-07 16:25:00,88.0,73.4,29.98,SW,222,6.0,7.0,62,0.00,,CLR,0.00,VWS V14.01,2013-07-07 21:25:00,
2013-07-07 16:30:00,88.0,73.8,29.98,SSW,197,0.0,7.0,63,0.00,,CLR,0.00,VWS V14.01,2013-07-07 21:30:00,
2013-07-07 16:35:00,88.2,73.6,29.98,WSW,241,4.0,6.0,62,0.00,,CLR,0.00,VWS V14.01,2013-07-07 21:35:00,
2013-07-07 16:40:00,88.3,73.2,29.98,SSW,207,0.0,6.0,61,0.00,,CLR,0.00,VWS V14.01,2013-07-07 21:40:00,
2013-07-07 16:45:00,88.2,72.6,29.98,SW,216,2.0,6.0,60,0.00,,CLR,0.00,VWS V14.01,2013-07-07 21:45:00,
2013-07-07 16:50:00,88.3,74.1,29.98,SSW,213,4.0,8.0,63,0.00,,CLR,0.00,VWS V14.01,2013-07-07 21:50:00,
2013-07-07 16:55:00,88.3,72.7,29.98,WSW,237,0.0,5.0,60,0.00,,CLR,0.00,VWS V14.01,2013-07-07 21:55:00,
2013-07-07 17:00:00,88.2,73.1,29.98,SW,232,0.0,5.0,61,0.00,,CLR,0.00,VWS V14.01,2013-07-07 22:00:00,
2013-07-07 17:05:00,88.1,73.0,29.98,South,183,4.0,7.0,61,0.00,,CLR,0.00,VWS V14.01,2013-07-07 22:05:00,
2013-07-07 17:10:00,88.0,73.4,29.98,South,169,0.0,7.0,62,0.00,,CLR,0.00,VWS V14.01,2013-07-07 22:10:00,
2013-07-07 17:15:00,88.1,73.4,29.98,South,186,0.0,5.0,62,0.00,,CLR,0.00,VWS V14.01,2013-07-07 22:15:00,
2013-07-07 17:21:00,88.0,73.8,29.98,SW,216,0.0,8.0,63,0.00,,CLR,0.00,VWS V14.01,2013-07-07 22:21:00,
2013-07-07 17:31:00,87.8,73.2,29.97,SSW,206,0.0,5.0,62,0.00,,CLR,0.00,VWS V14.01,2013-07-07 22:31:00,
2013-07-07 17:36:00,87.9,73.3,29.97,SSW,192,0.0,8.0,62,0.00,,CLR,0.00,VWS V14.01,2013-07-07 22:36:00,
2013-07-07 17:41:00,87.9,74.2,29.97,SW,229,0.0,8.0,64,0.00,,CLR,0.00,VWS V14.01,2013-07-07 22:41:00,
2013-07-07 17:46:00,87.9,73.7,29.97,SSW,199,0.0,2.0,63,0.00,,CLR,0.00,VWS V14.01,2013-07-07 22:46:00,
2013-07-07 17:51:00,87.9,72.8,29.97,SSW,200,1.0,3.0,61,0.00,,CLR,0.00,VWS V14.01,2013-07-07 22:51:00,
2013-07-07 17:56:00,87.7,72.1,29.97,South,184,0.0,3.0,60,0.00,,CLR,0.00,VWS V14.01,2013-07-07 22:56:00,
2013-07-07 18:01:00,87.5,72.4,29.97,SW,230,0.0,7.0,61,0.00,,CLR,0.00,VWS V14.01,2013-07-07 23:01:00,
2013-07-07 18:06:00,87.4,72.8,29.97,West,262,3.0,8.0,62,0.00,,CLR,0.00,VWS V14.01,2013-07-07 23:06:00,
2013-07-07 18:11:00,87.2,72.6,29.97,WSW,245,2.0,8.0,62,0.00,,CLR,0.00,VWS V14.01,2013-07-07 23:11:00,
2013-07-07 18:16:00,87.2,73.1,29.97,SSW,210,0.0,5.0,63,0.00,,CLR,0.00,VWS V14.01,2013-07-07 23:16:00,
2013-07-07 18:21:00,87.1,72.5,29.97,SW,227,0.0,5.0,62,0.00,,CLR,0.00,VWS V14.01,2013-07-07 23:21:00,
2013-07-07 18:26:00,87.0,72.9,29.97,SSE,159,0.0,7.0,63,0.00,,CLR,0.00,VWS V14.01,2013-07-07 23:26:00,
2013-07-07 18:31:00,86.9,72.8,29.97,SSW,212,0.0,7.0,63,0.00,,CLR,0.00,VWS V14.01,2013-07-07 23:31:00,
2013-07-07 18:36:00,86.8,72.7,29.98,South,173,0.0,2.0,63,0.00,,CLR,0.00,VWS V14.01,2013-07-07 23:36:00,
2013-07-07 18:41:00,86.7,73.1,29.98,South,188,0.0,3.0,64,0.00,,CLR,0.00,VWS V14.01,2013-07-07 23:41:00,
2013-07-07 18:46:00,86.6,73.0,29.98,SW,232,0.0,4.0,64,0.00,,CLR,0.00,VWS V14.01,2013-07-07 23:46:00,
2013-07-07 18:51:00,86.5,72.9,29.98,SW,217,0.0,4.0,64,0.00,,CLR,0.00,VWS V14.01,2013-07-07 23:51:00,
2013-07-07 18:56:00,86.4,73.2,29.98,SW,217,0.0,1.0,65,0.00,,CLR,0.00,VWS V14.01,2013-07-07 23:56:00,
2013-07-07 19:01:00,86.2,73.5,29.97,SW,217,0.0,3.0,66,0.00,,CLR,0.00,VWS V14.01,2013-07-08 00:01:00,
2013-07-07 19:06:00,86.1,73.9,29.97,SSW,205,0.0,3.0,67,0.00,,CLR,0.00,VWS V14.01,2013-07-08 00:06:00,
2013-07-07 19:11:00,86.0,74.2,29.97,SSW,196,1.0,3.0,68,0.00,,CLR,0.00,VWS V14.01,2013-07-08 00:11:00,
2013-07-07 19:16:00,85.9,74.1,29.97,SSW,196,0.0,1.0,68,0.00,,CLR,0.00,VWS V14.01,2013-07-08 00:16:00,
2013-07-07 19:21:00,85.6,73.8,29.97,SSW,196,0.0,1.0,68,0.00,,CLR,0.00,VWS V14.01,2013-07-08 00:21:00,
2013-07-07 19:26:00,85.5,74.2,29.97,SSW,196,0.0,0.0,69,0.00,,CLR,0.00,VWS V14.01,2013-07-08 00:26:00,
2013-07-07 19:31:00,85.2,73.9,29.97,SSW,193,0.0,3.0,69,0.00,,CLR,0.00,VWS V14.01,2013-07-08 00:31:00,
2013-07-07 19:36:00,85.1,74.2,29.97,SW,214,0.0,1.0,70,0.00,,CLR,0.00,VWS V14.01,2013-07-08 00:36:00,
2013-07-07 19:41:00,84.9,74.0,29.98,SSW,208,0.0,2.0,70,0.00,,CLR,0.00,VWS V14.01,2013-07-08 00:41:00,
2013-07-07 19:46:00,84.7,73.8,29.98,SSW,208,0.0,0.0,70,0.00,,CLR,0.00,VWS V14.01,2013-07-08 00:46:00,
2013-07-07 19:51:00,84.4,74.0,29.98,SSW,208,0.0,1.0,71,0.00,,CLR,0.00,VWS V14.01,2013-07-08 00:51:00,
2013-07-07 19:56:00,84.2,73.8,29.98,SSW,195,0.0,1.0,71,0.00,,CLR,0.00,VWS V14.01,2013-07-08 00:56:00,
2013-07-07 20:01:00,84.0,74.0,29.98,SSW,195,0.0,1.0,72,0.00,,CLR,0.00,VWS V14.01,2013-07-08 01:01:00,
2013-07-07 20:06:00,83.8,73.8,29.99,SSW,195,0.0,0.0,72,0.00,,CLR,0.00,VWS V14.01,2013-07-08 01:06:00,
2013-07-07 20:11:00,83.5,73.9,29.99,SSW,195,0.0,1.0,73,0.00,,CLR,0.00,VWS V14.01,2013-07-08 01:11:00,
2013-07-07 20:16:00,83.3,73.8,29.99,SSW,195,0.0,1.0,73,0.00,,CLR,0.00,VWS V14.01,2013-07-08 01:16:00,
2013-07-07 20:21:00,83.0,73.9,29.99,SSW,195,0.0,1.0,74,0.00,,CLR,0.00,VWS V14.01,2013-07-08 01:21:00,
2013-07-07 20:26:00,82.8,73.7,29.99,SSW,195,0.0,1.0,74,0.00,,CLR,0.00,VWS V14.01,2013-07-08 01:26:00,
2013-07-07 20:31:00,82.6,73.9,29.99,SSW,195,0.0,1.0,75,0.00,,CLR,0.00,VWS V14.01,2013-07-08 01:31:00,
2013-07-07 20:36:00,82.3,73.6,29.99,SSW,195,0.0,2.0,75,0.00,,CLR,0.00,VWS V14.01,2013-07-08 01:36:00,
2013-07-07 20:41:00,82.0,73.3,29.99,SSW,195,0.0,2.0,75,0.00,,CLR,0.00,VWS V14.01,2013-07-08 01:41:00,
2013-07-07 20:46:00,81.8,73.5,29.99,SSW,195,0.0,0.0,76,0.00,,CLR,0.00,VWS V14.01,2013-07-08 01:46:00,
2013-07-07 20:51:00,81.5,73.2,30.00,SSW,195,0.0,0.0,76,0.00,,CLR,0.00,VWS V14.01,2013-07-08 01:51:00,
2013-07-07 20:56:00,81.3,73.0,30.00,SSW,195,0.0,1.0,76,0.00,,CLR,0.00,VWS V14.01,2013-07-08 01:56:00,
2013-07-07 21:01:00,81.1,73.2,30.00,SSW,195,0.0,1.0,77,0.00,,CLR,0.00,VWS V14.01,2013-07-08 02:01:00,
2013-07-07 21:06:00,80.9,73.0,30.00,SSW,195,0.0,1.0,77,0.00,,CLR,0.00,VWS V14.01,2013-07-08 02:06:00,
2013-07-07 21:11:00,80.7,72.8,30.00,SSW,195,0.0,1.0,77,0.00,,CLR,0.00,VWS V14.01,2013-07-08 02:11:00,
2013-07-07 21:16:00,80.5,72.6,30.00,SSW,195,0.0,1.0,77,0.00,,CLR,0.00,VWS V14.01,2013-07-08 02:16:00,
2013-07-07 21:21:00,80.3,72.8,30.00,SSW,195,0.0,3.0,78,0.00,,CLR,0.00,VWS V14.01,2013-07-08 02:21:00,
2013-07-07 21:26:00,80.1,72.6,30.01,SSW,195,0.0,1.0,78,0.00,,CLR,0.00,VWS V14.01,2013-07-08 02:26:00,
2013-07-07 21:31:00,79.9,72.4,30.00,SSW,195,0.0,1.0,78,0.00,,CLR,0.00,VWS V14.01,2013-07-08 02:31:00,
2013-07-07 21:36:00,79.8,72.3,30.00,SSW,195,0.0,1.0,78,0.00,,CLR,0.00,VWS V14.01,2013-07-08 02:36:00,
2013-07-07 21:41:00,79.6,72.1,30.01,SSW,195,0.0,1.0,78,0.00,,CLR,0.00,VWS V14.01,2013-07-08 02:41:00,
2013-07-07 21:46:00,79.5,72.0,30.01,SSW,195,0.0,2.0,78,0.00,,CLR,0.00,VWS V14.01,2013-07-08 02:46:00,
2013-07-07 21:51:00,79.4,71.9,30.01,SSW,195,0.0,2.0,78,0.00,,CLR,0.00,VWS V14.01,2013-07-08 02:51:00,
2013-07-07 21:56:00,79.4,71.9,30.01,SSW,195,0.0,1.0,78,0.00,,CLR,0.00,VWS V14.01,2013-07-08 02:56:00,
2013-07-07 22:01:00,79.4,71.9,30.01,SSW,195,0.0,2.0,78,0.00,,CLR,0.00,VWS V14.01,2013-07-08 03:01:00,
2013-07-07 22:06:00,79.3,71.8,30.01,SSW,194,0.0,4.0,78,0.00,,CLR,0.00,VWS V14.01,2013-07-08 03:06:00,
2013-07-07 22:11:00,79.4,71.6,30.02,SSW,194,1.0,4.0,77,0.00,,CLR,0.00,VWS V14.01,2013-07-08 03:11:00,
2013-07-07 22:16:00,79.4,71.6,30.02,SSW,203,0.0,6.0,77,0.00,,CLR,0.00,VWS V14.01,2013-07-08 03:16:00,
2013-07-07 22:21:00,79.4,71.6,30.02,SSW,203,0.0,6.0,77,0.00,,CLR,0.00,VWS V14.01,2013-07-08 03:21:00,
2013-07-07 22:26:00,79.5,71.3,30.02,SSW,203,0.0,1.0,76,0.00,,CLR,0.00,VWS V14.01,2013-07-08 03:26:00,
2013-07-07 22:31:00,79.5,71.3,30.02,SSE,153,0.0,4.0,76,0.00,,CLR,0.00,VWS V14.01,2013-07-08 03:31:00,
2013-07-07 22:36:00,79.5,71.3,30.02,SSE,160,0.0,2.0,76,0.00,,CLR,0.00,VWS V14.01,2013-07-08 03:36:00,
2013-07-07 22:41:00,79.4,71.6,30.02,SSE,163,0.0,4.0,77,0.00,,CLR,0.00,VWS V14.01,2013-07-08 03:41:00,
2013-07-07 22:46:00,79.2,71.4,30.02,SSE,163,0.0,5.0,77,0.00,,CLR,0.00,VWS V14.01,2013-07-08 03:46:00,
2013-07-07 22:51:00,79.0,71.2,30.02,SSE,163,0.0,5.0,77,0.00,,CLR,0.00,VWS V14.01,2013-07-08 03:51:00,
2013-07-07 22:56:00,78.8,71.4,30.02,South,177,0.0,5.0,78,0.00,,CLR,0.00,VWS V14.01,2013-07-08 03:56:00,
2013-07-07 23:01:00,78.6,71.2,30.02,South,177,0.0,5.0,78,0.00,,CLR,0.00,VWS V14.01,2013-07-08 04:01:00,
2013-07-07 23:11:00,78.3,71.3,30.02,South,177,0.0,2.0,79,0.00,,CLR,0.00,VWS V14.01,2013-07-08 04:11:00,
2013-07-07 23:21:00,78.1,71.1,30.03,South,175,0.0,5.0,79,0.00,,CLR,0.00,VWS V14.01,2013-07-08 04:21:00,
2013-07-07 23:26:00,78.0,71.0,30.03,South,175,0.0,4.0,79,0.00,,CLR,0.00,VWS V14.01,2013-07-08 04:26:00,
2013-07-07 23:31:00,77.9,70.9,30.03,South,176,0.0,4.0,79,0.00,,CLR,0.00,VWS V14.01,2013-07-08 04:31:00,
2013-07-07 23:36:00,77.9,71.2,30.03,South,178,0.0,5.0,80,0.00,,CLR,0.00,VWS V14.01,2013-07-08 04:36:00,
2013-07-07 23:41:00,77.8,71.1,30.03,South,175,0.0,6.0,80,0.00,,CLR,0.00,VWS V14.01,2013-07-08 04:41:00,
2013-07-07 23:46:00,77.7,71.0,30.03,South,175,0.0,2.0,80,0.00,,CLR,0.00,VWS V14.01,2013-07-08 04:46:00,
2013-07-07 23:51:00,77.6,70.9,30.03,South,175,0.0,2.0,80,0.00,,CLR,0.00,VWS V14.01,2013-07-08 04:51:00,
2013-07-07 23:56:00,77.6,70.9,30.03,South,175,0.0,1.0,80,0.00,,CLR,0.00,VWS V14.01,2013-07-08 04:56:00,